KMHT/MHT METAR and TAF weather

Enter ICAO airport designator
Station Type Date Time Source
KMHT METAR 2019/02/20 06:53 UTC NOAA

KMHT 200653Z 00000KT 10SM SCT250 M09/M17 A3055 RMK AO2 SLP367 T10941167


Station Type Date Time Source
KMHT Decoded METAR 2019/02/20 06:53 UTC NOAA

MANCHESTER AIRPORT, NH, United States (KMHT) 42-56N 071-26W 81M
Feb 20, 2019 - 01:53 AM EST / 2019.02.20 0653 UTC
Wind: Calm:0
Visibility: 10 mile(s):0
Sky conditions: partly cloudy
Temperature: 15.1 F (-9.4 C)
Dew Point: 1.9 F (-16.7 C)
Relative Humidity: 55%
Pressure (altimeter): 30.55 in. Hg (1034 hPa)
ob: KMHT 200653Z 00000KT 10SM SCT250 M09/M17 A3055 RMK AO2 SLP367 T10941167
cycle: 7

Station Type Date Time Source
KMHT TAF 2019/02/20 06:24 UTC NOAA

TAF KMHT 200522Z 2006/2106 24004KT P6SM SCT250
FM210000 17003KT P6SM OVC035 PROB30 2102/2106 2SM -SN BR OVC015


Example: see airport list